createdAt,value
2019-03-17T00:00:07.582Z,65.99
2019-03-17T00:02:33.881Z,65.26
2019-03-17T00:05:00.388Z,64.58
2019-03-17T00:07:26.512Z,64.81
2019-03-17T00:09:52.824Z,65.44
2019-03-17T00:12:19.139Z,66.65
2019-03-17T00:14:45.447Z,66.83
2019-03-17T00:17:11.785Z,66.98
2019-03-17T00:19:38.095Z,67.38
2019-03-17T00:22:04.441Z,66.95
2019-03-17T00:24:30.766Z,65.69
2019-03-17T00:26:57.078Z,65.95
2019-03-17T00:29:23.412Z,66.03
2019-03-17T00:31:49.727Z,66.18
2019-03-17T00:34:16.034Z,65.75
2019-03-17T00:36:42.343Z,66.47
2019-03-17T00:39:08.684Z,66.19
2019-03-17T00:41:34.995Z,65.74
2019-03-17T00:44:01.378Z,66.60
2019-03-17T00:46:27.687Z,66.37
2019-03-17T00:48:53.997Z,66.43
2019-03-17T00:51:20.317Z,66.95
2019-03-17T00:53:46.637Z,67.26
2019-03-17T00:56:12.957Z,66.31
2019-03-17T00:58:39.270Z,67.11
2019-03-17T01:01:05.609Z,67.43
2019-03-17T01:03:31.928Z,66.55
2019-03-17T01:05:58.231Z,66.45
2019-03-17T01:08:24.549Z,66.31
2019-03-17T01:10:50.862Z,67.64
2019-03-17T01:13:17.189Z,67.33
2019-03-17T01:15:43.504Z,67.56
2019-03-17T01:18:09.852Z,67.71
2019-03-17T01:20:36.166Z,68.04
2019-03-17T01:23:02.470Z,68.60
2019-03-17T01:25:28.796Z,68.66
2019-03-17T01:27:55.102Z,68.37
2019-03-17T01:30:21.412Z,68.22
2019-03-17T01:32:47.723Z,68.51
2019-03-17T01:35:14.062Z,69.11
2019-03-17T01:37:40.382Z,69.33
2019-03-17T01:40:06.727Z,69.55
2019-03-17T01:42:33.036Z,69.82
2019-03-17T01:44:59.348Z,69.78
2019-03-17T01:47:27.790Z,69.38
2019-03-17T01:49:51.980Z,69.46
2019-03-17T01:52:18.306Z,69.44
2019-03-17T01:54:44.609Z,69.80
2019-03-17T01:57:10.943Z,69.09
2019-03-17T01:59:37.244Z,68.95
2019-03-17T02:02:03.554Z,69.10
2019-03-17T02:04:29.865Z,69.18
2019-03-17T02:06:56.181Z,69.26
2019-03-17T02:09:22.489Z,69.29
2019-03-17T02:11:48.801Z,69.29
2019-03-17T02:14:15.107Z,69.02
2019-03-17T02:16:41.423Z,69.14
2019-03-17T02:19:07.780Z,69.76
2019-03-17T02:21:35.094Z,69.53
2019-03-17T02:24:01.411Z,69.14
2019-03-17T02:26:27.724Z,68.98
2019-03-17T02:28:54.051Z,68.51
2019-03-17T02:31:20.373Z,68.68
2019-03-17T02:33:46.683Z,68.93
2019-03-17T02:36:13.058Z,70.10
2019-03-17T02:38:39.368Z,69.65
2019-03-17T02:41:05.681Z,69.93
2019-03-17T02:43:32.003Z,68.81
2019-03-17T02:45:58.318Z,69.04
2019-03-17T02:48:24.637Z,69.19
2019-03-17T02:50:50.963Z,68.42
2019-03-17T02:53:17.304Z,69.51
2019-03-17T02:55:43.626Z,69.78
2019-03-17T02:58:09.934Z,69.79
2019-03-17T03:00:36.241Z,69.20
2019-03-17T03:03:02.605Z,70.16
2019-03-17T03:05:28.913Z,70.12
2019-03-17T03:07:55.234Z,70.54
2019-03-17T03:10:21.546Z,70.43
2019-03-17T03:12:47.849Z,70.39
2019-03-17T03:15:14.185Z,70.17
2019-03-17T03:17:40.488Z,69.89
2019-03-17T03:20:06.812Z,70.02
2019-03-17T03:22:33.120Z,69.60
2019-03-17T03:24:59.433Z,69.70
2019-03-17T03:27:25.746Z,69.25
2019-03-17T03:29:52.063Z,69.71
2019-03-17T03:32:18.397Z,70.63
2019-03-17T03:34:44.714Z,70.79
2019-03-17T03:39:37.142Z,70.73
2019-03-17T03:42:03.450Z,70.51
2019-03-17T03:44:29.768Z,70.53
2019-03-17T03:46:56.078Z,70.67
2019-03-17T03:49:22.408Z,70.50
2019-03-17T03:51:48.719Z,70.33
2019-03-17T03:54:15.059Z,69.47
2019-03-17T03:56:41.375Z,70.12
2019-03-17T03:59:07.678Z,69.35
2019-03-17T04:01:34.030Z,68.84
2019-03-17T04:04:00.328Z,69.17
2019-03-17T04:06:27.271Z,68.60
2019-03-17T04:08:52.999Z,69.31
2019-03-17T04:11:19.305Z,69.49
2019-03-17T04:13:45.650Z,69.73
2019-03-17T04:16:11.935Z,70.09
2019-03-17T04:18:38.243Z,70.83
2019-03-17T04:21:04.551Z,71.39
2019-03-17T04:23:30.867Z,72.04
2019-03-17T04:25:57.195Z,72.73
2019-03-17T04:28:23.513Z,74.11
2019-03-17T04:30:49.822Z,74.40
2019-03-17T04:33:16.134Z,75.05
2019-03-17T04:35:42.450Z,75.28
2019-03-17T04:38:08.766Z,75.43
2019-03-17T04:40:35.087Z,75.24
2019-03-17T04:43:01.396Z,75.36
2019-03-17T04:45:27.726Z,75.21
2019-03-17T04:47:54.036Z,75.90
2019-03-17T04:50:20.346Z,75.61
2019-03-17T04:52:46.664Z,76.01
2019-03-17T04:55:12.972Z,75.28
2019-03-17T04:57:39.291Z,74.68
2019-03-17T05:00:05.613Z,74.88
2019-03-17T05:02:31.933Z,74.25
2019-03-17T05:04:58.270Z,73.82
2019-03-17T05:07:24.600Z,72.76
2019-03-17T05:09:50.907Z,71.73
2019-03-17T05:12:17.222Z,70.40
2019-03-17T05:14:43.532Z,69.85
2019-03-17T05:17:09.856Z,68.63
2019-03-17T05:19:36.263Z,67.03
2019-03-17T05:22:02.573Z,65.92
2019-03-17T05:24:28.915Z,64.83
2019-03-17T05:26:55.232Z,63.70
2019-03-17T05:29:21.541Z,63.20
2019-03-17T05:31:47.862Z,62.65
2019-03-17T05:34:14.183Z,61.10
2019-03-17T05:36:40.505Z,60.04
2019-03-17T05:39:06.813Z,58.85
2019-03-17T05:41:33.126Z,59.08
2019-03-17T05:43:59.438Z,58.97
2019-03-17T05:46:25.773Z,58.94
2019-03-17T05:48:52.087Z,58.49
2019-03-17T05:51:18.410Z,58.02
2019-03-17T05:53:44.720Z,57.91
2019-03-17T05:56:11.040Z,56.67
2019-03-17T05:58:37.399Z,56.43
2019-03-17T06:01:03.716Z,55.54
2019-03-17T06:03:30.024Z,54.53
2019-03-17T06:05:56.336Z,53.40
2019-03-17T06:08:22.686Z,54.00
2019-03-17T06:10:49.023Z,54.44
2019-03-17T06:13:15.335Z,53.33
2019-03-17T06:15:41.658Z,52.60
2019-03-17T06:18:07.979Z,52.10
2019-03-17T06:20:34.328Z,51.17
2019-03-17T06:23:00.628Z,51.01
2019-03-17T06:25:26.957Z,49.93
2019-03-17T06:27:53.272Z,49.61
2019-03-17T06:30:19.581Z,49.34
2019-03-17T06:32:45.897Z,49.59
2019-03-17T06:35:12.216Z,49.86
2019-03-17T06:37:38.543Z,49.09
2019-03-17T06:40:04.856Z,49.19
2019-03-17T06:42:31.179Z,48.55
2019-03-17T06:44:57.816Z,48.48
2019-03-17T06:47:24.056Z,48.34
2019-03-17T06:49:50.379Z,47.32
2019-03-17T06:52:16.701Z,46.97
2019-03-17T06:54:43.281Z,46.84
2019-03-17T06:57:09.588Z,46.44
2019-03-17T06:59:35.974Z,46.79
2019-03-17T07:02:02.295Z,46.48
2019-03-17T07:04:28.675Z,46.41
2019-03-17T07:06:55.050Z,46.50
2019-03-17T07:09:21.363Z,45.03
2019-03-17T07:11:47.694Z,45.39
2019-03-17T07:14:14.015Z,45.95
2019-03-17T07:16:40.327Z,45.22
2019-03-17T07:19:06.780Z,44.57
2019-03-17T07:21:33.089Z,43.87
2019-03-17T07:23:59.441Z,43.68
2019-03-17T07:26:25.754Z,43.34
2019-03-17T07:28:52.086Z,43.50
2019-03-17T07:31:18.425Z,43.23
2019-03-17T07:33:46.928Z,42.69
2019-03-17T07:36:13.244Z,42.66
2019-03-17T07:38:39.658Z,42.72
2019-03-17T07:41:05.941Z,42.11
2019-03-17T07:43:32.388Z,41.73
2019-03-17T07:45:58.765Z,41.62
2019-03-17T07:48:25.143Z,41.33
2019-03-17T07:50:51.414Z,40.89
2019-03-17T07:53:17.755Z,40.90
2019-03-17T07:55:44.088Z,40.55
2019-03-17T07:58:10.386Z,41.17
2019-03-17T08:00:36.717Z,41.56
2019-03-17T08:03:03.044Z,40.63
2019-03-17T08:05:29.408Z,40.60
2019-03-17T08:08:08.207Z,40.03
2019-03-17T08:10:22.106Z,40.67
2019-03-17T08:12:48.484Z,39.78
2019-03-17T08:15:14.912Z,39.84
2019-03-17T08:17:41.253Z,40.12
2019-03-17T08:20:07.520Z,40.36
2019-03-17T08:22:33.847Z,39.87
2019-03-17T08:25:00.205Z,39.36
2019-03-17T08:27:26.543Z,40.23
2019-03-17T08:29:52.855Z,40.03
2019-03-17T08:32:20.519Z,39.62
2019-03-17T08:34:45.482Z,38.54
2019-03-17T08:37:11.795Z,38.27
2019-03-17T08:39:38.129Z,39.68
2019-03-17T08:42:04.436Z,39.08
2019-03-17T08:44:30.768Z,38.38
2019-03-17T08:46:57.088Z,38.10
2019-03-17T08:49:23.396Z,36.68
2019-03-17T08:51:49.728Z,36.29
2019-03-17T08:54:16.041Z,36.08
2019-03-17T08:56:42.352Z,36.42
2019-03-17T08:59:08.665Z,36.79
2019-03-17T09:01:35.099Z,36.58
2019-03-17T09:04:01.414Z,36.25
2019-03-17T09:06:27.748Z,36.85
2019-03-17T09:08:54.103Z,35.65
2019-03-17T09:11:20.397Z,34.38
2019-03-17T09:13:46.708Z,34.16
2019-03-17T09:16:13.024Z,34.11
2019-03-17T09:18:39.338Z,32.99
2019-03-17T09:21:05.652Z,32.63
2019-03-17T09:23:31.973Z,32.70
2019-03-17T09:25:58.285Z,31.94
2019-03-17T09:28:24.610Z,32.21
2019-03-17T09:30:50.923Z,30.48
2019-03-17T09:33:17.247Z,31.21
2019-03-17T09:35:43.590Z,31.01
2019-03-17T09:38:09.937Z,30.17
2019-03-17T09:40:36.266Z,30.01
2019-03-17T09:43:02.567Z,30.21
2019-03-17T09:45:28.898Z,30.31
2019-03-17T09:47:55.206Z,29.55
2019-03-17T09:50:21.536Z,28.86
2019-03-17T09:52:57.161Z,29.03
2019-03-17T09:55:23.495Z,28.69
2019-03-17T09:57:49.810Z,28.17
2019-03-17T10:00:16.184Z,27.80
2019-03-17T10:02:42.635Z,27.98
2019-03-17T10:05:09.154Z,27.00
2019-03-17T10:07:35.800Z,27.71
2019-03-17T10:10:02.154Z,27.47
2019-03-17T10:12:31.512Z,27.72
2019-03-17T10:14:55.940Z,28.26
2019-03-17T10:17:22.249Z,28.43
2019-03-17T10:19:48.580Z,28.62
2019-03-17T10:22:14.883Z,28.85
2019-03-17T10:24:41.196Z,28.98
2019-03-17T10:27:07.520Z,28.48
2019-03-17T10:29:33.858Z,28.60
2019-03-17T10:32:00.191Z,27.82
2019-03-17T10:34:26.509Z,27.17
2019-03-17T10:36:52.918Z,26.82
2019-03-17T10:39:19.437Z,26.83
2019-03-17T10:41:46.176Z,26.06
2019-03-17T10:44:12.520Z,26.77
2019-03-17T10:46:38.848Z,26.53
2019-03-17T10:49:05.150Z,27.18
2019-03-17T10:51:31.486Z,26.62
2019-03-17T10:53:57.795Z,27.46
2019-03-17T10:56:24.115Z,27.09
2019-03-17T10:58:50.460Z,26.75
2019-03-17T11:01:16.771Z,26.74
2019-03-17T11:03:43.096Z,25.94
2019-03-17T11:06:09.522Z,24.37
2019-03-17T11:08:35.839Z,24.12
2019-03-17T11:11:02.251Z,24.13
2019-03-17T11:13:28.584Z,23.77
2019-03-17T11:15:54.893Z,24.30
2019-03-17T11:18:21.207Z,24.54
2019-03-17T11:20:47.851Z,25.27
2019-03-17T11:23:14.177Z,24.41
2019-03-17T11:25:40.489Z,24.77
2019-03-17T11:28:06.804Z,23.72
2019-03-17T11:30:33.118Z,24.75
2019-03-17T11:32:59.489Z,24.89
2019-03-17T11:35:25.799Z,24.81
2019-03-17T11:37:52.131Z,24.93
2019-03-17T11:40:18.446Z,24.66
2019-03-17T11:42:44.774Z,25.37
2019-03-17T11:45:11.084Z,24.12
2019-03-17T11:47:37.395Z,23.78
2019-03-17T11:50:03.710Z,24.29
2019-03-17T11:52:30.021Z,24.34
2019-03-17T11:54:56.333Z,23.69
2019-03-17T11:57:22.645Z,23.75
2019-03-17T11:59:48.965Z,23.95
2019-03-17T12:02:26.097Z,23.21
2019-03-17T12:04:41.606Z,22.51
2019-03-17T12:07:07.917Z,22.90
2019-03-17T12:09:34.249Z,23.30
2019-03-17T12:12:00.542Z,23.26
2019-03-17T12:14:26.857Z,22.90
2019-03-17T12:16:53.165Z,22.90
2019-03-17T12:19:19.494Z,22.84
2019-03-17T12:21:45.828Z,22.91
2019-03-17T12:24:12.154Z,21.95
2019-03-17T12:26:38.488Z,21.94
2019-03-17T12:29:04.822Z,22.10
2019-03-17T12:31:31.152Z,21.84
2019-03-17T12:33:57.478Z,22.29
2019-03-17T12:36:23.813Z,22.30
2019-03-17T12:38:50.422Z,22.03
2019-03-17T12:41:16.758Z,21.70
2019-03-17T12:43:43.104Z,21.51
2019-03-17T12:46:09.429Z,21.40
2019-03-17T12:48:35.773Z,21.41
2019-03-17T12:51:02.114Z,21.46
2019-03-17T12:53:28.434Z,21.39
2019-03-17T12:55:54.751Z,21.64
2019-03-17T12:58:21.081Z,21.34
2019-03-17T13:00:47.387Z,20.98
2019-03-17T13:03:13.698Z,22.12
2019-03-17T13:05:40.043Z,22.04
2019-03-17T13:08:06.352Z,22.17
2019-03-17T13:10:32.674Z,21.86
2019-03-17T13:12:59.030Z,22.37
2019-03-17T13:15:25.360Z,23.08
2019-03-17T13:17:51.678Z,23.05
2019-03-17T13:20:17.992Z,23.07
2019-03-17T13:22:44.302Z,23.74
2019-03-17T13:25:10.605Z,23.80
2019-03-17T13:27:36.933Z,24.01
2019-03-17T13:30:03.239Z,24.13
2019-03-17T13:32:29.545Z,24.59
2019-03-17T13:34:55.851Z,24.36
2019-03-17T13:37:22.179Z,24.22
2019-03-17T13:39:48.492Z,24.67
2019-03-17T13:42:14.803Z,24.62
2019-03-17T13:44:41.115Z,24.25
2019-03-17T13:47:07.428Z,24.87
2019-03-17T13:49:33.798Z,24.76
2019-03-17T13:52:00.119Z,25.06
2019-03-17T13:54:26.445Z,24.83
2019-03-17T13:56:52.777Z,23.86
2019-03-17T13:59:19.099Z,24.11
2019-03-17T14:01:45.442Z,24.07
2019-03-17T14:04:11.761Z,24.10
2019-03-17T14:06:38.088Z,23.93
2019-03-17T14:09:04.412Z,24.33
2019-03-17T14:11:30.762Z,24.32
2019-03-17T14:13:57.087Z,23.92
2019-03-17T14:16:23.413Z,24.14
2019-03-17T14:18:49.743Z,24.35
2019-03-17T14:21:16.071Z,24.70
2019-03-17T14:23:42.389Z,24.25
2019-03-17T14:26:08.711Z,24.56
2019-03-17T14:28:35.044Z,24.27
2019-03-17T14:31:01.378Z,24.14
2019-03-17T14:33:27.710Z,24.44
2019-03-17T14:35:54.030Z,24.62
2019-03-17T14:38:20.352Z,24.06
2019-03-17T14:40:53.766Z,24.24
2019-03-17T14:43:13.007Z,24.00
2019-03-17T14:45:39.340Z,24.30
2019-03-17T14:48:05.663Z,24.15
2019-03-17T14:50:32.014Z,24.21
2019-03-17T14:53:00.688Z,24.38
2019-03-17T14:55:24.666Z,24.23
2019-03-17T14:57:51.008Z,24.63
2019-03-17T15:00:17.349Z,24.70
2019-03-17T15:02:43.679Z,24.48
2019-03-17T15:05:10.021Z,23.92
2019-03-17T15:07:36.356Z,24.24
2019-03-17T15:10:02.681Z,24.48
2019-03-17T15:12:29.036Z,24.48
2019-03-17T15:14:55.360Z,24.44
2019-03-17T15:17:21.690Z,24.67
2019-03-17T15:19:48.052Z,25.27
2019-03-17T15:22:14.371Z,25.38
2019-03-17T15:24:40.694Z,25.51
2019-03-17T15:27:07.035Z,25.48
2019-03-17T15:29:33.362Z,25.62
2019-03-17T15:31:59.672Z,25.96
2019-03-17T15:34:26.868Z,26.24
2019-03-17T15:36:53.301Z,26.18
2019-03-17T15:39:19.621Z,26.01
2019-03-17T15:41:45.952Z,26.14
2019-03-17T15:44:12.321Z,26.22
2019-03-17T15:46:38.706Z,26.40
2019-03-17T15:49:05.199Z,26.35
2019-03-17T15:51:31.527Z,26.61
2019-03-17T15:53:57.942Z,26.47
2019-03-17T15:56:24.261Z,27.33
2019-03-17T15:58:50.585Z,27.10
2019-03-17T16:01:16.909Z,27.01
2019-03-17T16:03:43.239Z,27.74
2019-03-17T16:06:11.026Z,27.35
2019-03-17T16:08:36.023Z,27.68
2019-03-17T16:11:02.355Z,27.69
2019-03-17T16:13:28.719Z,27.55
2019-03-17T16:15:55.059Z,27.60
2019-03-17T16:18:21.374Z,27.13
2019-03-17T16:20:47.693Z,28.07
2019-03-17T16:23:14.016Z,27.92
2019-03-17T16:25:40.354Z,27.65
2019-03-17T16:28:06.703Z,28.06
2019-03-17T16:30:33.022Z,28.05
2019-03-17T16:32:59.355Z,28.05
2019-03-17T16:35:25.739Z,28.08
2019-03-17T16:37:52.023Z,28.67
2019-03-17T16:40:18.340Z,29.07
2019-03-17T16:42:44.669Z,29.28
2019-03-17T16:45:11.008Z,29.82
2019-03-17T16:47:37.348Z,30.08
2019-03-17T16:50:03.664Z,29.71
2019-03-17T16:52:30.006Z,30.26
2019-03-17T16:54:56.330Z,30.05
2019-03-17T16:57:22.651Z,30.25
2019-03-17T16:59:48.980Z,30.58
2019-03-17T17:02:15.312Z,30.64
2019-03-17T17:04:41.682Z,30.58
2019-03-17T17:07:08.004Z,30.25
2019-03-17T17:09:34.357Z,30.73
2019-03-17T17:12:00.721Z,31.95
2019-03-17T17:14:27.012Z,31.42
2019-03-17T17:16:53.330Z,31.48
2019-03-17T17:19:19.689Z,31.48
2019-03-17T17:21:45.994Z,31.42
2019-03-17T17:24:12.322Z,31.80
2019-03-17T17:26:38.702Z,31.42
2019-03-17T17:29:05.001Z,31.65
2019-03-17T17:31:31.411Z,31.23
2019-03-17T17:33:57.750Z,31.42
2019-03-17T17:36:24.078Z,31.02
2019-03-17T17:38:50.411Z,31.34
2019-03-17T17:41:16.724Z,31.42
2019-03-17T17:43:43.067Z,31.30
2019-03-17T17:46:09.429Z,31.26
2019-03-17T17:48:35.754Z,31.22
2019-03-17T17:51:02.074Z,31.25
2019-03-17T17:53:28.404Z,31.40
2019-03-17T17:55:54.742Z,31.31
2019-03-17T17:58:21.064Z,31.36
2019-03-17T18:00:47.382Z,31.39
2019-03-17T18:03:13.709Z,31.82
2019-03-17T18:05:40.052Z,32.05
2019-03-17T18:08:06.377Z,31.64
2019-03-17T18:10:32.731Z,31.67
2019-03-17T18:12:59.100Z,31.72
2019-03-17T18:15:25.371Z,31.77
2019-03-17T18:17:51.753Z,32.10
2019-03-17T18:20:18.089Z,32.22
2019-03-17T18:22:44.392Z,32.63
2019-03-17T18:25:10.703Z,32.61
2019-03-17T18:27:37.033Z,33.12
2019-03-17T18:30:03.345Z,33.25
2019-03-17T18:32:29.680Z,34.11
2019-03-17T18:34:56.006Z,33.43
2019-03-17T18:37:22.315Z,33.52
2019-03-17T18:39:48.621Z,33.40
2019-03-17T18:42:14.932Z,33.42
2019-03-17T18:44:41.281Z,33.30
2019-03-17T18:47:07.707Z,33.51
2019-03-17T18:49:34.051Z,33.79
2019-03-17T18:52:00.369Z,33.78
2019-03-17T18:54:26.679Z,33.68
2019-03-17T18:56:53.030Z,33.81
2019-03-17T18:59:19.334Z,34.04
2019-03-17T19:01:45.999Z,34.24
2019-03-17T19:04:12.311Z,34.34
2019-03-17T19:06:38.987Z,34.45
2019-03-17T19:09:05.300Z,34.59
2019-03-17T19:11:31.707Z,34.73
2019-03-17T19:13:58.018Z,34.75
2019-03-17T19:16:24.343Z,34.76
2019-03-17T19:18:50.667Z,35.32
2019-03-17T19:21:17.040Z,35.78
2019-03-17T19:23:43.376Z,36.63
2019-03-17T19:26:09.690Z,37.35
2019-03-17T19:28:36.029Z,38.94
2019-03-17T19:31:02.378Z,38.22
2019-03-17T19:33:28.710Z,38.65
2019-03-17T19:35:55.429Z,39.28
2019-03-17T19:38:21.414Z,39.75
2019-03-17T19:40:47.731Z,40.37
2019-03-17T19:43:14.041Z,40.41
2019-03-17T19:45:40.389Z,40.44
2019-03-17T19:48:06.700Z,40.87
2019-03-17T19:50:33.065Z,41.28
2019-03-17T19:52:59.381Z,42.40
2019-03-17T19:55:25.689Z,41.86
2019-03-17T19:57:52.002Z,42.19
2019-03-17T20:00:19.515Z,42.75
2019-03-17T20:02:47.693Z,42.73
2019-03-17T20:05:12.205Z,43.01
2019-03-17T20:07:38.518Z,42.57
2019-03-17T20:10:04.829Z,42.71
2019-03-17T20:12:31.258Z,43.91
2019-03-17T20:14:57.569Z,43.35
2019-03-17T20:17:23.900Z,44.04
2019-03-17T20:19:50.242Z,44.25
2019-03-17T20:22:16.559Z,44.46
2019-03-17T20:24:42.865Z,44.01
2019-03-17T20:27:09.275Z,44.07
2019-03-17T20:29:35.581Z,44.00
2019-03-17T20:32:01.892Z,44.33
2019-03-17T20:34:28.205Z,43.66
2019-03-17T20:36:54.536Z,43.69
2019-03-17T20:39:20.848Z,43.69
2019-03-17T20:41:47.214Z,43.40
2019-03-17T20:44:13.516Z,43.42
2019-03-17T20:46:39.854Z,43.51
2019-03-17T20:49:06.128Z,44.40
2019-03-17T20:51:32.442Z,43.52
2019-03-17T20:53:58.766Z,43.72
2019-03-17T20:56:25.073Z,44.49
2019-03-17T20:58:51.416Z,44.65
2019-03-17T21:01:17.726Z,44.97
2019-03-17T21:03:44.043Z,45.61
2019-03-17T21:06:11.400Z,45.91
2019-03-17T21:08:37.923Z,47.15
2019-03-17T21:11:04.246Z,47.14
2019-03-17T21:13:31.568Z,47.19
2019-03-17T21:15:57.889Z,47.17
2019-03-17T21:18:24.195Z,47.40
2019-03-17T21:20:50.560Z,48.41
2019-03-17T21:23:16.863Z,48.32
2019-03-17T21:25:43.173Z,48.02
2019-03-17T21:28:09.501Z,48.03
2019-03-17T21:30:35.818Z,48.85
2019-03-17T21:33:02.162Z,48.84
2019-03-17T21:35:28.529Z,49.72
2019-03-17T21:37:54.850Z,49.01
2019-03-17T21:40:21.195Z,48.81
2019-03-17T21:42:47.588Z,48.77
2019-03-17T21:45:13.930Z,48.92
2019-03-17T21:47:40.204Z,48.74
2019-03-17T21:50:06.542Z,49.64
2019-03-17T21:52:32.863Z,49.12
2019-03-17T21:54:59.183Z,49.58
2019-03-17T21:57:25.492Z,49.41
2019-03-17T21:59:51.825Z,49.39
2019-03-17T22:02:18.136Z,49.63
2019-03-17T22:04:44.452Z,49.08
2019-03-17T22:07:10.769Z,49.19
2019-03-17T22:09:37.102Z,50.30
2019-03-17T22:12:03.447Z,50.04
2019-03-17T22:14:29.726Z,50.12
2019-03-17T22:16:56.053Z,49.96
2019-03-17T22:19:22.388Z,50.80
2019-03-17T22:21:48.698Z,50.47
2019-03-17T22:24:15.033Z,50.92
2019-03-17T22:26:41.338Z,51.20
2019-03-17T22:29:07.672Z,51.21
2019-03-17T22:31:34.003Z,51.30
2019-03-17T22:34:00.318Z,52.00
2019-03-17T22:36:26.622Z,52.29
2019-03-17T22:38:52.931Z,52.99
2019-03-17T22:41:19.245Z,54.05
2019-03-17T22:43:45.557Z,52.92
2019-03-17T22:46:11.864Z,53.59
2019-03-17T22:48:38.186Z,54.66
2019-03-17T22:51:04.782Z,54.03
2019-03-17T22:53:31.085Z,54.91
2019-03-17T22:55:57.416Z,54.46
2019-03-17T22:58:23.731Z,54.09
2019-03-17T23:00:50.042Z,54.73
2019-03-17T23:03:16.399Z,54.46
2019-03-17T23:05:42.750Z,55.12
2019-03-17T23:08:09.020Z,55.07
2019-03-17T23:10:35.335Z,55.08
2019-03-17T23:13:01.650Z,56.03
2019-03-17T23:15:28.062Z,55.95
2019-03-17T23:17:54.349Z,55.88
2019-03-17T23:20:20.727Z,56.80
2019-03-17T23:22:47.001Z,56.30
2019-03-17T23:25:13.315Z,57.20
2019-03-17T23:27:39.661Z,59.52
2019-03-17T23:30:05.957Z,54.81
2019-03-17T23:32:32.265Z,55.58
2019-03-17T23:34:58.603Z,54.94
2019-03-17T23:37:24.914Z,55.64
2019-03-17T23:39:51.257Z,57.53
2019-03-17T23:42:17.563Z,56.26
2019-03-17T23:44:48.903Z,56.38
2019-03-17T23:47:10.184Z,57.31
2019-03-17T23:49:36.488Z,56.61
2019-03-17T23:52:02.815Z,57.47
2019-03-17T23:54:29.127Z,58.16
2019-03-17T23:56:55.443Z,57.54
2019-03-17T23:59:21.753Z,58.05
